createdAt,value
2019-04-22T00:01:24.791Z,27.77
2019-04-22T00:03:55.178Z,28.23
2019-04-22T00:06:48.034Z,28.70
2019-04-22T00:09:19.526Z,27.97
2019-04-22T00:11:59.242Z,26.63
2019-04-22T00:14:11.916Z,27.67
2019-04-22T00:17:10.005Z,28.63
2019-04-22T00:19:20.886Z,27.97
2019-04-22T00:21:48.989Z,28.00
2019-04-22T00:24:20.465Z,28.40
2019-04-22T00:26:50.303Z,29.07
2019-04-22T00:29:49.622Z,28.83
2019-04-22T00:32:05.652Z,28.30
2019-04-22T00:34:43.766Z,30.27
2019-04-22T00:37:16.792Z,29.17
2019-04-22T00:39:46.651Z,28.80
2019-04-22T00:42:18.189Z,30.70
2019-04-22T00:44:47.077Z,29.27
2019-04-22T00:47:23.218Z,30.40
2019-04-22T00:52:16.510Z,29.90
2019-04-22T00:54:57.217Z,29.87
2019-04-22T00:57:15.340Z,30.43
2019-04-22T00:59:52.261Z,31.42
2019-04-22T01:02:20.275Z,30.37
2019-04-22T01:05:09.790Z,28.65
2019-04-22T01:07:18.920Z,31.27
2019-04-22T01:09:53.641Z,30.20
2019-04-22T01:12:21.261Z,30.40
2019-04-22T01:14:49.607Z,31.70
2019-04-22T01:17:19.650Z,32.33
2019-04-22T01:19:56.311Z,29.43
2019-04-22T01:22:22.122Z,31.33
2019-04-22T01:24:52.693Z,32.63
2019-04-22T01:27:19.064Z,31.87
2019-04-22T01:29:46.312Z,34.20
2019-04-22T01:32:13.218Z,33.40
2019-04-22T01:34:51.413Z,34.37
2019-04-22T01:37:23.946Z,33.40
2019-04-22T01:42:35.622Z,33.50
2019-04-22T01:44:59.595Z,32.00
2019-04-22T01:47:34.237Z,35.08
2019-04-22T01:50:02.525Z,36.83
2019-04-22T01:52:31.043Z,36.53
2019-04-22T01:55:04.472Z,34.17
2019-04-22T01:57:28.456Z,34.48
2019-04-22T01:59:58.704Z,36.43
2019-04-22T02:02:36.037Z,35.63
2019-04-22T02:05:10.606Z,33.93
2019-04-22T02:07:36.529Z,36.23
2019-04-22T02:10:02.247Z,36.13
2019-04-22T02:15:06.576Z,38.27
2019-04-22T02:17:39.749Z,38.67
2019-04-22T02:20:12.065Z,36.73
2019-04-22T02:23:00.395Z,35.23
2019-04-22T02:25:13.477Z,35.43
2019-04-22T02:27:45.797Z,36.80
2019-04-22T02:30:05.872Z,35.75
2019-04-22T02:33:13.410Z,37.40
2019-04-22T02:35:24.125Z,35.63
2019-04-22T02:37:46.235Z,35.93
2019-04-22T02:40:17.452Z,36.03
2019-04-22T02:42:42.881Z,37.07
2019-04-22T02:45:19.123Z,37.36
2019-04-22T02:47:42.254Z,37.20
2019-04-22T02:50:08.772Z,37.10
2019-04-22T02:52:43.217Z,36.90
2019-04-22T02:55:15.417Z,38.03
2019-04-22T02:57:57.097Z,38.43
2019-04-22T03:00:27.341Z,36.87
2019-04-22T03:03:04.072Z,39.17
2019-04-22T03:07:55.929Z,35.47
2019-04-22T03:10:18.770Z,39.57
2019-04-22T03:12:41.900Z,38.90
2019-04-22T03:15:12.012Z,37.60
2019-04-22T03:17:51.634Z,36.77
2019-04-22T03:20:22.048Z,38.40
2019-04-22T03:22:59.562Z,37.37
2019-04-22T03:25:51.428Z,40.73
2019-04-22T03:27:47.840Z,37.53
2019-04-22T03:30:48.101Z,40.03
2019-04-22T03:37:52.960Z,39.60
2019-04-22T03:40:30.747Z,40.17
2019-04-22T03:42:55.707Z,38.87
2019-04-22T03:55:22.952Z,39.57
2019-04-22T03:57:55.578Z,41.80
2019-04-22T04:00:45.553Z,39.70
2019-04-22T04:03:01.106Z,39.33
2019-04-22T04:13:01.883Z,38.80
2019-04-22T04:15:23.702Z,38.97
2019-04-22T04:30:30.031Z,40.67
2019-04-22T04:37:55.928Z,43.58
2019-04-22T04:42:58.724Z,39.20
2019-04-22T04:45:45.052Z,42.33
2019-04-22T04:47:57.968Z,38.10
2019-04-22T04:50:35.898Z,40.97
2019-04-22T04:53:06.356Z,40.50
2019-04-22T04:58:13.039Z,39.80
2019-04-22T05:02:58.228Z,40.30
2019-04-22T05:10:41.209Z,40.55
2019-04-22T05:18:31.237Z,42.30
2019-04-22T05:23:19.407Z,40.90
2019-04-22T05:25:24.873Z,44.37
2019-04-22T05:28:11.794Z,39.93
2019-04-22T05:30:26.720Z,41.27
2019-04-22T05:32:54.171Z,44.67
2019-04-22T05:35:26.694Z,44.13
2019-04-22T05:38:04.200Z,47.33
2019-04-22T05:40:32.569Z,50.77
2019-04-22T05:42:56.557Z,54.40
2019-04-22T05:45:27.610Z,59.17
2019-04-22T05:47:59.514Z,58.93
2019-04-22T05:50:23.948Z,64.40
2019-04-22T05:52:57.063Z,60.83
2019-04-22T05:55:48.504Z,64.43
2019-04-22T06:03:04.112Z,64.60
2019-04-22T06:05:38.662Z,65.57
2019-04-22T06:08:04.077Z,67.53
2019-04-22T06:13:04.460Z,63.33
2019-04-22T06:15:39.009Z,64.30
2019-04-22T06:18:22.827Z,56.57
2019-04-22T06:20:53.167Z,57.13
2019-04-22T06:23:26.119Z,55.57
2019-04-22T06:26:05.297Z,56.30
2019-04-22T06:28:29.112Z,55.97
2019-04-22T06:30:57.558Z,54.15
2019-04-22T06:35:56.302Z,52.00
2019-04-22T06:40:55.294Z,50.58
2019-04-22T06:43:26.298Z,46.27
2019-04-22T06:45:51.745Z,46.43
2019-04-22T06:48:28.454Z,46.27
2019-04-22T06:50:53.955Z,46.63
2019-04-22T06:53:28.199Z,44.80
2019-04-22T06:55:51.444Z,46.07
2019-04-22T06:58:21.544Z,43.80
2019-04-22T07:00:59.409Z,44.75
2019-04-22T07:05:59.954Z,46.68
2019-04-22T07:08:59.270Z,43.50
2019-04-22T07:13:34.384Z,46.93
2019-04-22T07:16:00.406Z,45.48
2019-04-22T07:18:37.268Z,42.60
2019-04-22T07:21:01.510Z,46.70
2019-04-22T07:23:37.535Z,46.13
2019-04-22T07:25:58.421Z,43.13
2019-04-22T07:28:23.419Z,43.73
2019-04-22T07:31:08.095Z,41.47
2019-04-22T07:36:27.755Z,37.87
2019-04-22T07:38:32.768Z,39.87
2019-04-22T07:40:59.362Z,49.50
2019-04-22T07:46:00.672Z,36.23
2019-04-22T07:48:43.434Z,36.63
2019-04-22T07:53:33.803Z,35.48
2019-04-22T07:56:06.340Z,34.40
2019-04-22T07:58:36.009Z,32.53
2019-04-22T08:01:12.335Z,34.07
2019-04-22T08:03:47.738Z,32.40
2019-04-22T08:08:37.602Z,29.57
2019-04-22T08:11:21.560Z,31.97
2019-04-22T08:13:34.169Z,30.00
2019-04-22T08:16:10.590Z,29.57
2019-04-22T08:18:57.621Z,29.87
2019-04-22T08:21:22.216Z,28.87
2019-04-22T08:23:44.733Z,28.67
2019-04-22T08:26:04.866Z,27.87
2019-04-22T08:28:50.143Z,28.37
2019-04-22T08:31:14.579Z,26.00
2019-04-22T08:33:41.398Z,24.13
2019-04-22T08:36:17.742Z,23.17
2019-04-22T08:38:50.745Z,21.80
2019-04-22T08:41:32.112Z,25.13
2019-04-22T08:44:05.422Z,20.80
2019-04-22T08:46:25.598Z,27.97
2019-04-22T08:48:52.821Z,20.20
2019-04-22T08:51:20.961Z,19.57
2019-04-22T08:53:57.316Z,17.50
2019-04-22T08:56:29.827Z,15.80
2019-04-22T09:01:23.840Z,16.07
2019-04-22T09:03:54.971Z,15.58
2019-04-22T09:06:34.180Z,15.40
2019-04-22T09:08:54.099Z,14.23
2019-04-22T09:11:33.766Z,12.50
2019-04-22T09:13:55.826Z,14.47
2019-04-22T09:16:28.223Z,12.10
2019-04-22T09:18:56.180Z,12.07
2019-04-22T09:21:26.486Z,13.40
2019-04-22T09:24:02.255Z,11.80
2019-04-22T09:26:24.009Z,11.13
2019-04-22T09:29:02.849Z,11.03
2019-04-22T09:31:24.254Z,8.73
2019-04-22T09:33:51.491Z,10.37
2019-04-22T09:38:57.971Z,6.70
2019-04-22T09:41:27.155Z,16.20
2019-04-22T09:43:56.934Z,6.30
2019-04-22T09:46:28.275Z,5.95
2019-04-22T09:49:05.008Z,6.17
2019-04-22T09:51:26.882Z,6.17
2019-04-22T09:54:00.998Z,5.77
2019-04-22T09:56:31.892Z,5.60
2019-04-22T09:58:58.872Z,5.90
2019-04-22T10:11:32.606Z,6.03
2019-04-22T10:13:58.714Z,7.27
2019-04-22T10:19:04.360Z,5.80
2019-04-22T10:21:40.274Z,5.87
2019-04-22T10:24:03.427Z,4.77
2019-04-22T10:29:08.549Z,6.95
2019-04-22T10:31:40.631Z,5.47
2019-04-22T10:33:56.040Z,5.08
2019-04-22T10:36:10.741Z,5.55
2019-04-22T10:38:40.215Z,5.87
2019-04-22T10:41:10.227Z,5.67
2019-04-22T10:43:39.166Z,5.58
2019-04-22T10:46:08.236Z,6.80
2019-04-22T10:48:36.999Z,6.17
2019-04-22T10:51:06.542Z,10.87
2019-04-22T10:53:35.562Z,6.53
2019-04-22T10:56:05.220Z,4.77
2019-04-22T10:58:36.338Z,6.78
2019-04-22T11:01:05.329Z,7.03
2019-04-22T11:03:35.214Z,11.68
2019-04-22T11:06:05.510Z,16.20
2019-04-22T11:08:44.494Z,43.13
2019-04-22T11:11:18.940Z,12.53
2019-04-22T11:13:35.987Z,5.90
2019-04-22T11:16:05.534Z,6.60
2019-04-22T11:18:35.387Z,5.78
2019-04-22T11:24:00.709Z,5.20
2019-04-22T11:26:30.202Z,5.47
2019-04-22T11:29:03.490Z,5.10
2019-04-22T11:31:30.570Z,5.92
2019-04-22T11:34:00.640Z,5.95
2019-04-22T11:36:30.796Z,6.83
2019-04-22T11:39:03.547Z,54.03
2019-04-22T11:41:31.070Z,24.37
2019-04-22T11:44:01.193Z,6.80
2019-04-22T11:46:31.405Z,23.85
2019-04-22T11:49:00.344Z,15.90
2019-04-22T11:51:29.807Z,21.35
2019-04-22T11:53:58.806Z,7.70
2019-04-22T11:56:27.554Z,10.32
2019-04-22T11:58:57.050Z,20.07
2019-04-22T12:01:26.688Z,10.60
2019-04-22T12:03:55.796Z,6.53
2019-04-22T12:06:24.448Z,6.13
2019-04-22T12:08:54.157Z,9.00
2019-04-22T12:11:23.040Z,5.13
2019-04-22T12:13:51.873Z,6.65
2019-04-22T12:16:21.279Z,5.57
2019-04-22T12:18:51.216Z,4.40
2019-04-22T12:21:21.326Z,13.92
2019-04-22T12:23:50.921Z,8.35
2019-04-22T12:26:21.522Z,6.58
2019-04-22T12:28:50.984Z,5.10
2019-04-22T12:31:19.741Z,5.95
2019-04-22T12:33:49.311Z,6.37
2019-04-22T12:36:18.396Z,8.98
2019-04-22T12:38:47.544Z,7.15
2019-04-22T12:41:17.831Z,5.15
2019-04-22T12:43:47.385Z,4.80
2019-04-22T12:46:16.441Z,6.30
2019-04-22T12:48:47.738Z,5.23
2019-04-22T12:51:16.524Z,5.55
2019-04-22T12:53:46.286Z,6.33
2019-04-22T12:56:15.422Z,5.60
2019-04-22T12:58:45.790Z,5.37
2019-04-22T13:01:15.109Z,6.60
2019-04-22T13:03:44.671Z,5.53
2019-04-22T13:06:14.222Z,6.33
2019-04-22T13:08:43.589Z,6.60
2019-04-22T13:11:16.015Z,6.10
2019-04-22T13:13:42.917Z,5.40
2019-04-22T13:16:13.217Z,7.53
2019-04-22T13:18:50.245Z,7.45
2019-04-22T13:21:15.000Z,7.76
2019-04-22T13:23:44.514Z,7.12
2019-04-22T13:26:14.960Z,5.87
2019-04-22T13:28:44.996Z,5.10
2019-04-22T13:31:13.959Z,9.73
2019-04-22T13:33:43.034Z,5.60
2019-04-22T13:36:13.187Z,6.00
2019-04-22T13:38:42.928Z,6.72
2019-04-22T13:41:26.146Z,5.05
2019-04-22T13:43:42.911Z,5.20
2019-04-22T13:46:12.439Z,5.60
2019-04-22T13:49:09.711Z,7.20
2019-04-22T13:54:37.260Z,4.70
2019-04-22T13:56:30.414Z,5.17
2019-04-22T13:58:54.080Z,5.55
2019-04-22T14:01:14.708Z,5.15
2019-04-22T14:03:56.498Z,7.98
2019-04-22T14:06:32.106Z,7.40
2019-04-22T14:09:01.154Z,5.87
2019-04-22T14:11:37.634Z,7.10
2019-04-22T14:14:02.757Z,4.83
2019-04-22T14:16:33.042Z,16.73
2019-04-22T14:19:02.091Z,9.28
2019-04-22T14:21:30.728Z,14.55
2019-04-22T14:24:00.373Z,6.90
2019-04-22T14:26:44.233Z,5.05
2019-04-22T14:28:59.980Z,5.60
2019-04-22T14:31:28.761Z,4.33
2019-04-22T14:34:00.975Z,4.50
2019-04-22T14:36:27.607Z,5.33
2019-04-22T14:38:57.665Z,4.87
2019-04-22T14:41:40.591Z,4.85
2019-04-22T14:44:56.423Z,5.83
2019-04-22T14:46:58.235Z,8.48
2019-04-22T14:49:24.302Z,5.30
2019-04-22T14:51:49.641Z,5.40
2019-04-22T14:54:13.787Z,5.22
2019-04-22T14:56:28.639Z,6.95
2019-04-22T14:58:58.719Z,4.53
2019-04-22T15:01:28.917Z,7.58
2019-04-22T15:03:58.656Z,4.40
2019-04-22T15:06:28.467Z,3.58
2019-04-22T15:08:59.255Z,18.40
2019-04-22T15:11:29.037Z,11.43
2019-04-22T15:13:59.122Z,4.42
2019-04-22T15:16:48.822Z,4.50
2019-04-22T15:19:20.153Z,4.75
2019-04-22T15:21:48.679Z,4.17
2019-04-22T15:24:25.080Z,4.60
2019-04-22T15:26:56.317Z,7.08
2019-04-22T15:29:25.393Z,6.83
2019-04-22T15:31:55.543Z,5.35
2019-04-22T15:34:25.005Z,3.70
2019-04-22T15:36:54.077Z,4.33
2019-04-22T15:39:23.162Z,3.52
2019-04-22T15:42:00.464Z,3.50
2019-04-22T15:44:22.102Z,3.87
2019-04-22T15:46:50.965Z,3.83
2019-04-22T15:49:20.117Z,3.47
2019-04-22T15:51:48.918Z,4.28
2019-04-22T15:54:17.613Z,4.92
2019-04-22T15:56:46.563Z,3.15
2019-04-22T15:59:31.251Z,3.65
2019-04-22T16:01:48.623Z,3.60
2019-04-22T16:04:18.746Z,9.03
2019-04-22T16:06:47.562Z,5.80
2019-04-22T16:09:17.313Z,2.98
2019-04-22T16:11:47.635Z,4.92
2019-04-22T16:14:27.483Z,9.63
2019-04-22T16:16:50.376Z,5.08
2019-04-22T16:19:21.288Z,3.58
2019-04-22T16:21:56.594Z,3.60
2019-04-22T16:24:27.902Z,3.33
2019-04-22T16:26:58.286Z,4.23
2019-04-22T16:29:27.493Z,3.92
2019-04-22T16:31:57.549Z,2.90
2019-04-22T16:34:27.248Z,3.83
2019-04-22T16:36:56.746Z,3.20
2019-04-22T16:39:26.749Z,3.47
2019-04-22T16:41:56.883Z,3.90
2019-04-22T16:44:26.844Z,4.72
2019-04-22T16:46:55.538Z,2.75
2019-04-22T16:49:25.500Z,4.25
2019-04-22T16:51:54.287Z,3.83
2019-04-22T16:54:24.227Z,5.95
2019-04-22T16:56:54.221Z,3.75
2019-04-22T16:59:22.840Z,3.33
2019-04-22T17:01:54.462Z,4.03
2019-04-22T17:04:38.580Z,15.48
2019-04-22T17:07:08.887Z,7.22
2019-04-22T17:09:37.578Z,7.33
2019-04-22T17:12:06.216Z,3.72
2019-04-22T17:14:43.531Z,4.00
2019-04-22T17:17:06.562Z,3.47
2019-04-22T17:19:35.505Z,3.70
2019-04-22T17:22:05.754Z,3.13
2019-04-22T17:24:35.434Z,3.98
2019-04-22T17:27:06.432Z,3.08
2019-04-22T17:29:36.589Z,3.33
2019-04-22T17:32:11.748Z,3.42
2019-04-22T17:34:36.214Z,3.25
2019-04-22T17:37:11.468Z,3.40
2019-04-22T17:39:46.425Z,3.45
2019-04-22T17:42:25.128Z,4.28
2019-04-22T17:45:02.662Z,15.65
2019-04-22T17:47:29.022Z,3.68
2019-04-22T17:50:10.426Z,3.52
2019-04-22T17:52:36.407Z,2.92
2019-04-22T17:55:07.530Z,3.35
2019-04-22T17:57:34.550Z,2.52
2019-04-22T18:00:06.200Z,7.53
2019-04-22T18:02:32.206Z,4.20
2019-04-22T18:04:53.318Z,3.85
2019-04-22T18:07:41.187Z,3.13
2019-04-22T18:12:43.828Z,3.47
2019-04-22T18:15:11.400Z,3.30
2019-04-22T18:17:41.636Z,3.63
2019-04-22T18:20:04.624Z,3.47
2019-04-22T18:22:29.318Z,3.83
2019-04-22T18:25:02.223Z,3.70
2019-04-22T18:30:05.097Z,4.67
2019-04-22T18:32:37.969Z,3.70
2019-04-22T18:35:11.754Z,11.10
2019-04-22T18:37:46.982Z,4.57
2019-04-22T18:40:14.868Z,10.80
2019-04-22T18:42:46.337Z,5.13
2019-04-22T18:45:29.788Z,3.57
2019-04-22T18:47:38.770Z,4.50
2019-04-22T18:50:08.710Z,3.40
2019-04-22T18:53:03.670Z,4.83
2019-04-22T18:55:31.975Z,4.10
2019-04-22T18:58:09.019Z,4.07
2019-04-22T19:00:34.225Z,3.27
2019-04-22T19:03:13.133Z,3.83
2019-04-22T19:05:55.493Z,5.17
2019-04-22T19:08:29.200Z,4.30
2019-04-22T19:11:02.475Z,4.40
2019-04-22T19:13:54.475Z,3.83
2019-04-22T19:16:14.315Z,3.87
2019-04-22T19:18:36.438Z,4.43
2019-04-22T19:21:07.879Z,3.10
2019-04-22T19:23:33.210Z,3.07
2019-04-22T19:26:10.072Z,3.47
2019-04-22T19:33:49.364Z,3.30
2019-04-22T19:36:19.293Z,2.87
2019-04-22T19:38:34.070Z,3.77
2019-04-22T19:41:20.044Z,2.97
2019-04-22T19:43:47.324Z,3.50
2019-04-22T19:46:12.994Z,3.50
2019-04-22T19:48:45.016Z,3.75
2019-04-22T19:51:23.341Z,7.37
2019-04-22T19:53:49.419Z,6.27
2019-04-22T19:56:17.801Z,8.43
2019-04-22T19:58:47.645Z,3.50
2019-04-22T20:01:25.931Z,5.20
2019-04-22T20:04:13.159Z,3.37
2019-04-22T20:06:41.234Z,28.00
2019-04-22T20:09:13.674Z,3.80
2019-04-22T20:11:41.771Z,2.37
2019-04-22T20:14:12.055Z,2.80
2019-04-22T20:16:41.239Z,17.60
2019-04-22T20:19:19.317Z,4.80
2019-04-22T20:21:49.345Z,4.00
2019-04-22T20:24:02.161Z,3.27
2019-04-22T20:26:50.095Z,2.60
2019-04-22T20:29:21.022Z,3.40
2019-04-22T20:31:50.288Z,2.90
2019-04-22T20:34:22.306Z,2.40
2019-04-22T20:37:01.890Z,2.70
2019-04-22T20:39:10.863Z,2.87
2019-04-22T20:41:43.260Z,3.20
2019-04-22T20:44:24.665Z,3.33
2019-04-22T20:46:44.670Z,2.90
2019-04-22T20:49:22.331Z,3.30
2019-04-22T20:54:17.671Z,3.53
2019-04-22T20:56:45.204Z,3.65
2019-04-22T20:59:19.441Z,3.43
2019-04-22T21:02:01.939Z,3.07
2019-04-22T21:04:32.284Z,5.33
2019-04-22T21:07:04.987Z,7.53
2019-04-22T21:09:37.961Z,3.10
2019-04-22T21:12:05.138Z,2.97
2019-04-22T21:14:32.138Z,4.83
2019-04-22T21:17:13.046Z,4.53
2019-04-22T21:19:47.642Z,3.20
2019-04-22T21:22:16.230Z,3.07
2019-04-22T21:24:40.228Z,2.53
2019-04-22T21:32:21.754Z,3.20
2019-04-22T21:34:52.843Z,2.80
2019-04-22T21:37:26.836Z,4.57
2019-04-22T21:39:50.839Z,3.03
2019-04-22T21:42:24.154Z,2.50
2019-04-22T21:44:49.670Z,2.50
2019-04-22T21:47:30.093Z,2.30
2019-04-22T21:50:09.843Z,3.14
2019-04-22T21:52:24.942Z,2.60
2019-04-22T21:54:59.692Z,2.43
2019-04-22T21:57:46.119Z,2.53
2019-04-22T21:59:58.173Z,2.47
2019-04-22T22:02:28.075Z,2.73
2019-04-22T22:04:54.250Z,2.63
2019-04-22T22:07:14.412Z,2.83
2019-04-22T22:10:01.439Z,2.37
2019-04-22T22:12:33.331Z,2.50
2019-04-22T22:15:04.104Z,2.17
2019-04-22T22:17:27.781Z,1.90
2019-04-22T22:19:57.800Z,3.00
2019-04-22T22:25:01.242Z,2.30
2019-04-22T22:27:31.157Z,2.55
2019-04-22T22:30:27.416Z,2.53
2019-04-22T22:32:35.401Z,2.95
2019-04-22T22:35:03.154Z,2.57
2019-04-22T22:37:21.989Z,2.10
2019-04-22T22:39:51.350Z,2.37
2019-04-22T22:42:25.057Z,2.63
2019-04-22T22:44:48.478Z,2.40
2019-04-22T22:47:30.266Z,1.90
2019-04-22T22:50:03.055Z,2.50
2019-04-22T22:52:53.660Z,2.27
2019-04-22T22:55:08.784Z,2.10
2019-04-22T22:57:38.277Z,16.07
2019-04-22T23:00:03.842Z,3.40
2019-04-22T23:02:36.875Z,2.63
2019-04-22T23:05:09.669Z,3.17
2019-04-22T23:07:40.528Z,2.20
2019-04-22T23:10:07.935Z,2.13
2019-04-22T23:12:55.604Z,2.80
2019-04-22T23:15:06.277Z,2.00
2019-04-22T23:17:25.423Z,2.13
2019-04-22T23:19:51.767Z,2.08
2019-04-22T23:22:28.521Z,2.03
2019-04-22T23:25:08.047Z,2.10
2019-04-22T23:27:42.078Z,1.87
2019-04-22T23:30:17.036Z,2.27
2019-04-22T23:32:51.766Z,2.80
2019-04-22T23:35:33.869Z,5.47
2019-04-22T23:38:04.847Z,3.33
2019-04-22T23:40:38.490Z,2.73
2019-04-22T23:43:09.050Z,1.87
2019-04-22T23:45:41.694Z,2.50
2019-04-22T23:48:05.931Z,2.13
2019-04-22T23:50:41.246Z,2.20
2019-04-22T23:53:08.682Z,2.20
2019-04-22T23:55:46.388Z,2.07
2019-04-22T23:58:11.128Z,8.93
